Time;durP1;ratioP1;P1;durP2;ratioP2;P2;SDS_P1;SDS_P2;PMS_P1;PMS_P2;Temp;Humidity;BMP_temperature;BMP_pressure;BME280_temperature;BME280_humidity;BME280_pressure;Samples;Min_cycle;Max_cycle;Signal;HPM_P1;HPM_P2
2021/06/03 00:04:24;;;;;;;7.15;4.90;;;;;;;8.77;58.77;100375.63;515167;1098;116831;-64
2021/06/03 00:14:29;;;;;;;9.40;5.30;;;;;;;8.57;59.36;100369.48;515121;1098;115904;-65
2021/06/03 00:24:34;;;;;;;7.13;5.10;;;;;;;8.41;60.31;100371.87;515252;1098;116393;-64
2021/06/03 00:34:39;;;;;;;6.73;5.20;;;;;;;8.23;60.93;100374.36;515384;1098;115675;-64
2021/06/03 00:44:45;;;;;;;9.90;5.50;;;;;;;8.05;61.03;100381.21;514536;1093;116233;-64
2021/06/03 00:54:50;;;;;;;9.63;6.83;;;;;;;7.90;61.84;100385.29;515283;1092;116126;-64
2021/06/03 01:04:55;;;;;;;6.47;5.10;;;;;;;7.74;62.63;100384.22;515923;1098;116193;-64
2021/06/03 01:15:05;;;;;;;7.60;6.20;;;;;;;7.57;63.11;100389.19;514414;1098;115893;-64
2021/06/03 01:25:12;;;;;;;9.03;5.40;;;;;;;7.47;63.27;100384.36;532112;1098;115839;-63
2021/06/03 01:35:22;;;;;;;7.67;5.73;;;;;;;7.42;63.61;100384.53;526875;1098;117277;-63
2021/06/03 01:45:29;;;;;;;7.23;5.53;;;;;;;7.31;64.04;100390.17;521005;1098;116669;-63
2021/06/03 01:55:35;;;;;;;7.27;5.70;;;;;;;7.23;64.28;100400.05;528546;1098;116276;-64
2021/06/03 02:05:41;;;;;;;12.23;6.93;;;;;;;7.13;64.53;100403.00;529273;1093;116618;-63
2021/06/03 02:15:54;;;;;;;9.23;6.57;;;;;;;7.19;65.05;100394.09;520209;1098;116825;-64
2021/06/03 02:26:01;;;;;;;9.67;6.13;;;;;;;7.15;64.74;100384.67;523734;1098;116156;-61
2021/06/03 02:36:08;;;;;;;7.37;6.10;;;;;;;7.14;65.32;100396.03;516235;1098;116603;-63
2021/06/03 02:46:13;;;;;;;12.23;7.63;;;;;;;7.24;65.34;100392.17;517419;1092;115494;-63
2021/06/03 02:56:19;;;;;;;8.80;7.30;;;;;;;7.77;65.58;100400.61;529905;1092;116608;-64
2021/06/03 03:06:24;;;;;;;11.10;6.90;;;;;;;10.12;64.39;100397.40;530445;1093;116668;-64
2021/06/03 03:16:29;;;;;;;13.58;7.85;;;;;;;11.78;60.07;100407.18;517999;1098;116780;-63
2021/06/03 03:26:34;;;;;;;11.70;7.30;;;;;;;11.74;57.73;100424.91;524383;1093;116504;-57
2021/06/03 03:36:39;;;;;;;8.43;7.10;;;;;;;11.52;58.04;100419.97;514425;1093;177118;-64
2021/06/03 03:46:44;;;;;;;7.70;6.43;;;;;;;11.31;58.24;100420.23;532121;1098;116892;-65
2021/06/03 03:56:49;;;;;;;10.17;6.53;;;;;;;12.61;58.94;100441.06;531385;1098;116788;-64
2021/06/03 04:06:56;;;;;;;8.43;6.57;;;;;;;16.03;52.84;100432.92;516479;1093;116683;-63
2021/06/03 04:17:01;;;;;;;8.23;6.60;;;;;;;15.54;52.92;100438.16;518951;1098;115082;-63
2021/06/03 04:27:08;;;;;;;9.33;6.23;;;;;;;16.72;52.30;100437.48;531427;1098;116623;-64
2021/06/03 04:37:13;;;;;;;11.07;6.87;;;;;;;19.63;49.22;100437.73;525218;1098;116774;-64
2021/06/03 04:47:18;;;;;;;11.70;6.97;;;;;;;27.65;42.42;100427.85;532147;1098;115879;-65
2021/06/03 04:57:23;;;;;;;10.08;6.78;;;;;;;34.69;31.72;100424.10;531357;1098;116507;-64
2021/06/03 05:07:28;;;;;;;10.40;6.70;;;;;;;38.77;26.59;100434.56;532107;1097;117451;-63
2021/06/03 05:17:33;;;;;;;7.63;5.60;;;;;;;42.28;22.44;100428.51;523187;1098;116171;-63
2021/06/03 05:27:40;;;;;;;10.45;4.78;;;;;;;45.89;18.35;100419.63;522729;1093;116285;-65
2021/06/03 05:37:46;;;;;;;4.93;3.50;;;;;;;47.94;15.04;100439.89;514875;1094;116884;-66
2021/06/03 05:47:51;;;;;;;5.38;3.43;;;;;;;48.83;12.60;100442.31;518637;1098;116953;-65
2021/06/03 05:57:57;;;;;;;3.28;2.98;;;;;;;48.75;11.67;100438.41;523098;1098;116589;-64
2021/06/03 06:08:03;;;;;;;3.40;1.60;;;;;;;46.82;10.42;100435.69;531324;1098;116057;-64
2021/06/03 06:18:09;;;;;;;3.18;2.00;;;;;;;47.04;10.52;100452.56;531422;1098;116957;-64
2021/06/03 06:28:15;;;;;;;3.30;1.53;;;;;;;46.08;10.25;100442.73;532116;1098;116024;-65
2021/06/03 06:38:22;;;;;;;2.30;1.93;;;;;;;49.34;9.36;100451.41;532068;1098;117261;-64
2021/06/03 06:48:27;;;;;;;1.80;1.70;;;;;;;51.06;7.97;100455.11;531395;1098;116258;-64
2021/06/03 06:58:32;;;;;;;2.03;1.93;;;;;;;50.10;7.60;100452.47;532141;1097;116269;-66
2021/06/03 07:08:37;;;;;;;2.60;2.17;;;;;;;50.96;7.30;100454.41;531376;1098;116475;-62
2021/06/03 07:18:42;;;;;;;5.48;3.65;;;;;;;53.13;7.07;100463.13;529591;1098;116393;-63
2021/06/03 07:28:47;;;;;;;4.85;4.58;;;;;;;53.17;6.45;100467.63;514933;1098;117537;-64
2021/06/03 07:38:52;;;;;;;4.33;4.13;;;;;;;52.24;6.07;100461.48;519330;1098;117254;-64
2021/06/03 07:48:58;;;;;;;4.05;1.88;;;;;;;50.04;6.57;100446.30;532117;1098;115942;-65
2021/06/03 07:59:03;;;;;;;4.40;2.53;;;;;;;39.18;9.50;100439.41;532107;1098;116548;-63
2021/06/03 08:09:08;;;;;;;4.28;1.65;;;;;;;35.41;11.87;100445.76;528423;1098;116877;-65
2021/06/03 08:19:15;;;;;;;2.33;1.65;;;;;;;32.28;13.87;100440.67;520093;1098;115915;-64
2021/06/03 08:29:23;;;;;;;1.30;1.20;;;;;;;30.22;14.42;100443.70;517828;1098;116340;-64
2021/06/03 08:39:28;;;;;;;2.43;1.28;;;;;;;29.52;14.42;100439.41;519155;1098;116408;-64
2021/06/03 08:49:34;;;;;;;2.80;1.80;;;;;;;28.68;15.82;100442.03;526651;1093;116964;-63
2021/06/03 08:59:40;;;;;;;1.95;1.78;;;;;;;28.33;16.21;100429.33;531352;1098;116504;-64
2021/06/03 09:09:44;;;;;;;2.18;1.63;;;;;;;29.05;16.59;100433.77;532034;1098;116440;-64
2021/06/03 09:19:55;;;;;;;2.07;1.30;;;;;;;28.22;16.99;100433.41;532004;1098;117007;-64
2021/06/03 09:30:03;;;;;;;1.58;1.15;;;;;;;27.73;17.44;100428.73;531320;1098;117387;-66
2021/06/03 09:40:19;;;;;;;2.50;1.30;;;;;;;27.47;17.95;100438.18;532102;1098;116187;-65
2021/06/03 09:50:25;;;;;;;1.53;1.43;;;;;;;27.11;18.21;100429.87;532150;1098;119296;-63
2021/06/03 10:00:30;;;;;;;4.30;1.08;;;;;;;27.49;18.45;100426.19;512454;1098;10001964;-64
2021/06/03 10:10:38;;;;;;;4.50;2.33;;;;;;;28.10;18.01;100432.20;526177;1098;117311;-63
2021/06/03 10:20:46;;;;;;;2.97;1.20;;;;;;;27.72;17.88;100430.62;524005;1098;116710;-63
2021/06/03 10:30:52;;;;;;;2.63;1.60;;;;;;;26.34;18.82;100434.52;524251;1098;115913;-64
2021/06/03 10:41:02;;;;;;;3.45;1.23;;;;;;;25.97;18.69;100420.81;527738;1098;116218;-64
2021/06/03 10:51:10;;;;;;;5.80;2.27;;;;;;;25.28;19.63;100429.59;520388;1098;115779;-63
2021/06/03 11:01:17;;;;;;;1.90;1.03;;;;;;;24.85;19.91;100432.60;531823;1098;116840;-64
2021/06/03 11:11:31;;;;;;;1.65;1.50;;;;;;;25.29;20.20;100421.36;525157;1093;116762;-59
2021/06/03 11:22:06;;;;;;;1.97;1.87;;;;;;;25.00;20.70;100413.93;531950;1097;116187;-61
2021/06/03 11:32:20;;;;;;;1.83;1.57;;;;;;;24.60;20.86;100409.28;525218;1098;115721;-58
2021/06/03 11:42:29;;;;;;;1.97;1.43;;;;;;;24.46;20.92;100401.94;531178;1098;116441;-58
2021/06/03 11:52:34;;;;;;;2.93;2.13;;;;;;;24.56;21.40;100394.54;526629;1093;116397;-57
2021/06/03 12:02:40;;;;;;;2.37;2.17;;;;;;;25.00;21.34;100395.95;513800;1093;116224;-58
2021/06/03 12:12:46;;;;;;;1.67;1.57;;;;;;;24.65;21.42;100381.92;530609;1093;116150;-55
2021/06/03 12:22:51;;;;;;;5.10;1.33;;;;;;;24.85;21.33;100373.52;522610;1098;115893;-69
2021/06/03 12:33:05;;;;;;;1.60;1.50;;;;;;;24.56;21.42;100361.47;514409;1098;170213;-61
2021/06/03 12:43:12;;;;;;;4.00;2.00;;;;;;;24.03;22.29;100361.87;518511;1098;116020;-61
2021/06/03 12:53:20;;;;;;;1.73;1.60;;;;;;;24.76;22.09;100341.28;527716;1098;116897;-61
2021/06/03 13:03:26;;;;;;;1.48;1.38;;;;;;;25.32;21.41;100343.06;520970;1098;116516;-59
2021/06/03 13:13:33;;;;;;;1.97;1.80;;;;;;;24.54;21.96;100336.66;531927;1098;115777;-59
2021/06/03 13:23:42;;;;;;;3.30;1.23;;;;;;;23.85;22.89;100325.31;517154;1098;116508;-60
2021/06/03 13:33:48;;;;;;;2.47;1.90;;;;;;;23.30;23.15;100324.91;516786;1098;116023;-58
2021/06/03 13:44:02;;;;;;;1.67;1.53;;;;;;;23.35;23.58;100319.06;522950;1093;116543;-58
2021/06/03 13:54:18;;;;;;;3.30;2.10;;;;;;;23.78;24.00;100309.06;531211;1098;118136;-58
2021/06/03 14:04:24;;;;;;;2.43;2.03;;;;;;;23.89;23.39;100310.59;530232;1098;116522;-59
2021/06/03 14:14:32;;;;;;;3.47;2.30;;;;;;;23.95;23.69;100321.63;521780;1098;115884;-59
2021/06/03 14:24:44;;;;;;;3.33;2.37;;;;;;;24.05;24.12;100314.28;518365;1098;116247;-59
2021/06/03 14:34:49;;;;;;;2.65;2.10;;;;;;;23.76;24.51;100305.72;518241;1093;115672;-61
2021/06/03 14:44:57;;;;;;;3.60;2.20;;;;;;;23.29;24.26;100307.16;531268;1098;116818;-60
2021/06/03 14:55:05;;;;;;;3.35;1.85;;;;;;;22.95;24.81;100316.08;526040;1098;116469;-60
2021/06/03 15:05:09;;;;;;;;;;;;;;;22.73;25.20;100312.15;523220;1098;116259;-60
2021/06/03 15:15:16;;;;;;;2.40;1.80;;;;;;;22.75;25.25;100305.65;531661;1098;103024;-60
2021/06/03 15:25:24;;;;;;;4.13;1.77;;;;;;;23.13;24.72;100299.89;523166;1098;116605;-59
2021/06/03 15:35:32;;;;;;;1.60;1.50;;;;;;;23.60;24.42;100300.33;514573;1098;115551;-60
2021/06/03 15:45:38;;;;;;;3.10;1.87;;;;;;;23.56;25.03;100297.17;531859;1098;115736;-60
2021/06/03 15:55:43;;;;;;;3.23;2.00;;;;;;;23.43;24.82;100288.76;531937;1098;116333;-60
2021/06/03 16:05:48;;;;;;;2.40;1.30;;;;;;;23.02;25.02;100292.16;529249;1098;116889;-59
2021/06/03 16:15:56;;;;;;;1.80;1.70;;;;;;;22.33;25.38;100284.99;532061;1098;116159;-59
2021/06/03 16:26:01;;;;;;;6.65;3.35;;;;;;;21.86;25.36;100288.84;525988;1098;115933;-59
2021/06/03 16:36:08;;;;;;;2.73;1.87;;;;;;;21.58;25.72;100289.75;531344;1098;117258;-60
2021/06/03 16:46:13;;;;;;;2.43;1.80;;;;;;;21.27;26.44;100285.63;522275;1098;116425;-59
2021/06/03 16:56:18;;;;;;;2.80;2.60;;;;;;;21.04;26.62;100287.91;525088;1098;116730;-59
2021/06/03 17:06:23;;;;;;;4.63;2.47;;;;;;;20.89;27.80;100278.70;520653;1097;116468;-59
2021/06/03 17:16:28;;;;;;;3.87;2.53;;;;;;;20.72;28.50;100275.82;520335;1093;116137;-58
2021/06/03 17:26:33;;;;;;;9.97;4.43;;;;;;;20.44;29.73;100295.30;514747;1098;115505;-60
2021/06/03 17:36:38;;;;;;;5.07;2.83;;;;;;;20.19;30.64;100303.95;531966;1098;116508;-59
2021/06/03 17:46:44;;;;;;;22.43;8.10;;;;;;;19.87;33.91;100311.27;522031;1098;117289;-59
2021/06/03 17:56:48;;;;;;;;;;;;;;;19.41;35.23;100308.30;515858;1098;116335;-59
2021/06/03 18:06:54;;;;;;;24.80;9.20;;;;;;;19.06;36.66;100306.97;522817;1098;102789;-58
2021/06/03 18:17:00;;;;;;;48.40;30.83;;;;;;;18.68;38.82;100314.65;530066;1098;116624;-58
2021/06/03 18:27:07;;;;;;;29.50;21.57;;;;;;;18.33;39.35;100314.08;516329;1098;117238;-59
2021/06/03 18:37:12;;;;;;;32.53;21.97;;;;;;;17.89;42.25;100317.66;529027;1098;118030;-58
2021/06/03 18:47:18;;;;;;;52.50;34.43;;;;;;;17.44;43.86;100331.97;531911;1098;117048;-58
2021/06/03 18:57:23;;;;;;;35.00;23.73;;;;;;;16.94;45.54;100330.55;531193;1098;117303;-58
2021/06/03 19:07:28;;;;;;;29.43;18.33;;;;;;;16.50;47.34;100348.98;531760;1098;117034;-58
2021/06/03 19:17:51;;;;;;;25.47;17.03;;;;;;;16.04;48.38;100345.38;529337;1098;116877;-59
2021/06/03 19:27:58;;;;;;;19.97;11.77;;;;;;;15.69;49.41;100360.27;531866;1098;117667;-57
2021/06/03 19:38:17;;;;;;;11.63;7.93;;;;;;;15.45;48.60;100351.47;523209;1097;117309;-57
2021/06/03 19:48:23;;;;;;;15.03;10.97;;;;;;;15.22;50.37;100356.63;530732;1098;116592;-57
2021/06/03 19:58:28;;;;;;;21.37;9.33;;;;;;;15.02;51.11;100363.34;532008;1098;116480;-58
2021/06/03 20:08:33;;;;;;;13.47;9.13;;;;;;;14.83;52.24;100360.19;526628;1098;116557;-57
2021/06/03 20:18:39;;;;;;;15.93;10.40;;;;;;;14.71;52.67;100371.55;529959;1098;117062;-58
2021/06/03 20:28:44;;;;;;;24.20;11.53;;;;;;;14.52;53.21;100375.48;531982;1098;117221;-57
2021/06/03 20:38:49;;;;;;;24.70;11.10;;;;;;;14.36;53.94;100373.03;531322;1098;116696;-57
2021/06/03 20:48:54;;;;;;;18.45;8.88;;;;;;;14.23;53.74;100370.35;530936;1097;116976;-56
2021/06/03 20:59:00;;;;;;;22.97;10.27;;;;;;;14.03;54.75;100384.06;528415;1098;117279;-57
2021/06/03 21:09:07;;;;;;;19.25;9.25;;;;;;;13.85;55.96;100376.39;523484;1098;117529;-57
2021/06/03 21:19:13;;;;;;;15.63;8.40;;;;;;;13.71;56.00;100380.78;532044;1097;117302;-58
2021/06/03 21:29:18;;;;;;;20.93;10.73;;;;;;;13.69;56.48;100382.67;531982;1098;116255;-58
2021/06/03 21:39:24;;;;;;;15.50;8.67;;;;;;;13.62;55.82;100383.14;519314;1098;116837;-57
2021/06/03 21:49:28;;;;;;;14.03;7.57;;;;;;;13.56;56.64;100376.47;532055;1098;116575;-57
2021/06/03 21:59:33;;;;;;;19.43;8.27;;;;;;;13.42;57.52;100383.45;532063;1098;116473;-57
2021/06/03 22:09:40;;;;;;;18.57;7.93;;;;;;;13.27;57.74;100382.66;517193;1098;117645;-57
2021/06/03 22:19:45;;;;;;;15.13;7.90;;;;;;;13.18;57.92;100384.05;515359;1094;116672;-57
2021/06/03 22:29:51;;;;;;;8.57;5.97;;;;;;;13.00;57.87;100378.13;514624;1093;116831;-58
2021/06/03 22:39:56;;;;;;;9.27;6.67;;;;;;;13.07;57.85;100375.96;515342;1098;116707;-57
2021/06/03 22:50:01;;;;;;;12.43;6.50;;;;;;;12.91;58.41;100383.14;515251;1094;117534;-56
2021/06/03 23:00:13;;;;;;;10.70;7.47;;;;;;;12.91;58.71;100381.33;514749;1098;116924;-56
2021/06/03 23:10:19;;;;;;;10.15;6.15;;;;;;;12.88;58.53;100385.02;515410;1093;116870;-58
2021/06/03 23:20:24;;;;;;;7.90;4.93;;;;;;;12.95;57.08;100382.00;515313;1093;115852;-56
2021/06/03 23:30:29;;;;;;;11.73;7.10;;;;;;;12.84;58.48;100380.03;514496;1098;116997;-57
2021/06/03 23:40:35;;;;;;;7.67;6.77;;;;;;;12.79;57.69;100379.45;515547;1093;117028;-56
2021/06/03 23:50:41;;;;;;;8.03;6.40;;;;;;;12.65;58.70;100380.30;514334;1093;116689;-62
